createdAt,value
2022-08-22T00:00:59.562Z,3.10
2022-08-22T00:02:46.943Z,4.67
2022-08-22T00:02:47.664Z,3.07
2022-08-22T00:02:58.381Z,2.87
2022-08-22T00:02:58.943Z,5.23
2022-08-22T00:03:04.028Z,2.73
2022-08-22T00:03:11.928Z,2.87
2022-08-22T00:03:42.738Z,3.10
2022-08-22T00:06:20.414Z,2.60
2022-08-22T00:09:00.116Z,2.73
2022-08-22T00:11:41.650Z,2.70
2022-08-22T00:14:18.264Z,2.33
2022-08-22T00:16:56.633Z,2.57
2022-08-22T00:19:34.405Z,2.03
2022-08-22T00:22:07.949Z,2.37
2022-08-22T00:24:43.170Z,2.77
2022-08-22T00:27:18.321Z,2.07
2022-08-22T00:29:52.620Z,2.13
2022-08-22T00:32:28.274Z,2.30
2022-08-22T00:35:02.931Z,2.25
2022-08-22T00:37:36.231Z,1.77
2022-08-22T00:40:15.900Z,1.80
2022-08-22T00:43:09.121Z,2.00
2022-08-22T00:46:00.011Z,1.77
2022-08-22T00:49:13.874Z,2.17
2022-08-22T00:52:16.355Z,2.00
2022-08-22T00:55:18.537Z,2.27
2022-08-22T00:58:07.668Z,1.90
2022-08-22T01:00:44.118Z,1.83
2022-08-22T01:03:48.420Z,2.13
2022-08-22T01:06:25.449Z,2.13
2022-08-22T01:09:03.951Z,2.20
2022-08-22T01:11:52.364Z,2.20
2022-08-22T01:14:34.569Z,1.87
2022-08-22T01:17:29.437Z,2.13
2022-08-22T01:20:24.341Z,2.13
2022-08-22T01:23:41.174Z,1.83
2022-08-22T01:26:44.814Z,2.20
2022-08-22T01:29:50.095Z,1.90
2022-08-22T01:32:57.148Z,2.13
2022-08-22T01:36:08.233Z,2.13
2022-08-22T01:39:01.152Z,2.03
2022-08-22T01:42:00.473Z,2.17
2022-08-22T01:44:51.037Z,2.10
2022-08-22T01:47:24.259Z,2.10
2022-08-22T01:49:59.018Z,2.47
2022-08-22T01:52:37.692Z,1.97
2022-08-22T01:55:15.052Z,2.20
2022-08-22T01:57:53.211Z,2.50
2022-08-22T02:00:35.298Z,2.30
2022-08-22T02:03:17.758Z,2.60
2022-08-22T02:05:53.524Z,2.73
2022-08-22T02:08:32.777Z,2.50
2022-08-22T02:11:06.968Z,2.50
2022-08-22T02:13:47.374Z,2.67
2022-08-22T02:16:25.285Z,2.70
2022-08-22T02:19:11.307Z,2.50
2022-08-22T02:21:50.733Z,2.37
2022-08-22T02:24:26.424Z,2.70
2022-08-22T02:27:10.492Z,2.90
2022-08-22T02:29:49.611Z,3.03
2022-08-22T02:32:26.257Z,3.03
2022-08-22T02:35:03.690Z,2.67
2022-08-22T02:37:39.741Z,2.67
2022-08-22T02:40:17.618Z,2.70
2022-08-22T02:42:56.629Z,2.60
2022-08-22T02:45:32.516Z,3.60
2022-08-22T02:48:12.657Z,2.80
2022-08-22T02:50:49.378Z,2.57
2022-08-22T02:53:23.293Z,2.87
2022-08-22T02:55:59.306Z,2.50
2022-08-22T02:58:40.737Z,2.83
2022-08-22T03:01:23.053Z,2.93
2022-08-22T03:03:54.067Z,2.50
2022-08-22T03:06:37.974Z,2.50
2022-08-22T03:09:28.847Z,2.80
2022-08-22T03:12:09.984Z,2.30
2022-08-22T03:14:48.607Z,2.80
2022-08-22T03:17:25.025Z,2.77
2022-08-22T03:20:01.414Z,3.03
2022-08-22T03:22:39.416Z,2.23
2022-08-22T03:25:15.534Z,2.80
2022-08-22T03:27:51.632Z,2.70
2022-08-22T03:30:41.738Z,3.20
2022-08-22T03:33:20.057Z,3.40
2022-08-22T03:36:12.998Z,2.80
2022-08-22T03:38:55.420Z,3.30
2022-08-22T03:41:44.846Z,2.83
2022-08-22T03:44:40.061Z,2.87
2022-08-22T03:47:33.455Z,3.03
2022-08-22T03:50:57.144Z,2.97
2022-08-22T03:54:12.073Z,2.93
2022-08-22T03:57:10.370Z,3.30
2022-08-22T04:00:21.233Z,3.40
2022-08-22T04:03:24.315Z,3.87
2022-08-22T04:06:31.787Z,3.60
2022-08-22T04:09:29.131Z,3.57
2022-08-22T04:12:15.532Z,3.27
2022-08-22T04:15:15.498Z,3.60
2022-08-22T04:18:03.580Z,3.60
2022-08-22T04:20:59.707Z,3.20
2022-08-22T04:23:47.558Z,3.23
2022-08-22T04:26:20.724Z,3.70
2022-08-22T04:28:54.006Z,3.30
2022-08-22T04:31:28.622Z,3.57
2022-08-22T04:34:02.237Z,3.00
2022-08-22T04:36:36.724Z,3.20
2022-08-22T04:39:13.682Z,2.80
2022-08-22T04:41:49.391Z,3.27
2022-08-22T04:44:25.453Z,3.30
2022-08-22T04:46:59.596Z,3.00
2022-08-22T04:49:36.501Z,2.77
2022-08-22T04:52:14.022Z,3.00
2022-08-22T04:54:57.360Z,2.93
2022-08-22T04:57:34.170Z,3.47
2022-08-22T05:00:07.543Z,3.00
2022-08-22T05:02:40.782Z,2.80
2022-08-22T05:05:16.584Z,2.93
2022-08-22T05:07:51.336Z,3.57
2022-08-22T05:10:23.017Z,3.10
2022-08-22T05:13:02.406Z,3.00
2022-08-22T05:15:35.650Z,3.37
2022-08-22T05:18:09.382Z,3.60
2022-08-22T05:20:40.979Z,4.03
2022-08-22T05:23:17.363Z,3.97
2022-08-22T05:25:52.077Z,3.90
2022-08-22T05:28:33.732Z,4.03
2022-08-22T05:31:06.123Z,3.90
2022-08-22T05:33:41.742Z,4.00
2022-08-22T05:36:14.634Z,3.53
2022-08-22T05:38:48.560Z,3.97
2022-08-22T05:41:22.967Z,3.70
2022-08-22T05:43:53.751Z,3.67
2022-08-22T05:46:27.035Z,3.83
2022-08-22T05:48:59.926Z,3.83
2022-08-22T05:51:36.757Z,4.10
2022-08-22T05:54:13.987Z,4.00
2022-08-22T05:56:46.163Z,3.93
2022-08-22T05:59:24.885Z,4.07
2022-08-22T06:02:02.765Z,3.83
2022-08-22T06:04:38.998Z,3.87
2022-08-22T06:07:13.183Z,3.73
2022-08-22T06:10:06.583Z,4.20
2022-08-22T06:12:43.050Z,4.07
2022-08-22T06:15:20.931Z,3.97
2022-08-22T06:17:53.088Z,4.10
2022-08-22T06:20:24.258Z,3.70
2022-08-22T06:22:56.528Z,3.80
2022-08-22T06:25:32.374Z,4.10
2022-08-22T06:28:07.788Z,3.97
2022-08-22T06:30:38.428Z,3.70
2022-08-22T06:33:12.445Z,3.87
2022-08-22T06:36:02.377Z,4.07
2022-08-22T06:38:37.564Z,3.77
2022-08-22T06:41:10.783Z,3.67
2022-08-22T06:43:43.468Z,3.43
2022-08-22T06:46:16.281Z,4.20
2022-08-22T06:48:46.555Z,4.23
2022-08-22T06:51:18.901Z,3.90
2022-08-22T06:53:53.697Z,4.07
2022-08-22T06:56:29.598Z,3.57
2022-08-22T06:59:01.293Z,3.90
2022-08-22T07:01:50.662Z,3.87
2022-08-22T07:04:23.991Z,3.83
2022-08-22T07:06:55.229Z,3.80
2022-08-22T07:09:27.762Z,3.00
2022-08-22T07:12:01.205Z,3.57
2022-08-22T07:14:34.553Z,3.27
2022-08-22T07:17:05.717Z,3.53
2022-08-22T07:19:36.995Z,3.20
2022-08-22T07:22:14.366Z,3.50
2022-08-22T07:24:48.597Z,3.30
2022-08-22T07:27:30.878Z,3.07
2022-08-22T07:30:10.280Z,3.47
2022-08-22T07:32:50.504Z,3.20
2022-08-22T07:35:21.818Z,3.13
2022-08-22T07:37:58.460Z,3.63
2022-08-22T07:40:33.963Z,3.57
2022-08-22T07:43:13.804Z,3.40
2022-08-22T07:45:52.311Z,3.83
2022-08-22T07:48:29.366Z,3.67
2022-08-22T07:51:06.764Z,3.17
2022-08-22T07:53:41.711Z,2.90
2022-08-22T07:56:16.670Z,3.10
2022-08-22T07:58:49.998Z,3.30
2022-08-22T08:01:22.382Z,3.20
2022-08-22T08:03:57.198Z,3.33
2022-08-22T08:06:28.427Z,3.50
2022-08-22T08:08:58.250Z,3.50
2022-08-22T08:11:32.316Z,3.57
2022-08-22T08:14:08.688Z,4.03
2022-08-22T08:16:45.745Z,3.80
2022-08-22T08:19:16.683Z,4.17
2022-08-22T08:21:50.503Z,4.00
2022-08-22T08:24:23.570Z,4.23
2022-08-22T08:27:14.021Z,3.80
2022-08-22T08:29:54.627Z,3.10
2022-08-22T08:32:25.554Z,4.03
2022-08-22T08:34:54.936Z,3.77
2022-08-22T08:37:27.492Z,4.05
2022-08-22T08:40:00.674Z,3.85
2022-08-22T08:43:16.946Z,3.70
2022-08-22T08:46:30.824Z,3.40
2022-08-22T08:49:42.200Z,3.57
2022-08-22T08:52:38.441Z,3.63
2022-08-22T08:55:22.610Z,3.92
2022-08-22T08:58:10.276Z,3.50
2022-08-22T09:00:57.031Z,3.80
2022-08-22T09:04:06.799Z,3.83
2022-08-22T09:07:22.995Z,3.67
2022-08-22T09:10:12.778Z,3.55
2022-08-22T09:13:23.516Z,3.13
2022-08-22T09:16:10.055Z,3.30
2022-08-22T09:19:07.458Z,3.58
2022-08-22T09:22:14.689Z,4.50
2022-08-22T09:25:11.872Z,4.28
2022-08-22T09:27:51.504Z,4.38
2022-08-22T09:30:28.613Z,4.95
2022-08-22T09:33:02.032Z,5.13
2022-08-22T09:35:43.772Z,5.15
2022-08-22T09:38:34.749Z,5.50
2022-08-22T09:41:16.099Z,5.95
2022-08-22T09:43:51.091Z,5.65
2022-08-22T09:46:31.346Z,6.05
2022-08-22T09:49:11.382Z,5.85
2022-08-22T09:51:49.792Z,6.75
2022-08-22T09:54:34.978Z,6.57
2022-08-22T09:57:26.695Z,6.63
2022-08-22T10:00:16.028Z,4.32
2022-08-22T10:02:58.229Z,3.70
2022-08-22T10:05:44.035Z,3.87
2022-08-22T10:08:26.649Z,4.30
2022-08-22T10:11:08.415Z,3.87
2022-08-22T10:14:03.744Z,4.23
2022-08-22T10:16:55.322Z,4.17
2022-08-22T10:19:30.272Z,5.30
2022-08-22T10:22:24.173Z,3.90
2022-08-22T10:25:23.904Z,4.60
2022-08-22T10:28:10.503Z,4.67
2022-08-22T10:30:50.710Z,4.77
2022-08-22T10:33:25.822Z,4.47
2022-08-22T10:36:11.893Z,4.27
2022-08-22T10:38:46.873Z,4.13
2022-08-22T10:41:30.537Z,4.40
2022-08-22T10:44:05.132Z,3.60
2022-08-22T10:46:42.203Z,4.03
2022-08-22T10:49:19.630Z,4.37
2022-08-22T10:51:57.676Z,3.80
2022-08-22T10:54:39.934Z,4.40
2022-08-22T10:57:36.408Z,3.80
2022-08-22T11:00:14.556Z,3.40
2022-08-22T11:02:58.456Z,3.30
2022-08-22T11:05:35.218Z,3.27
2022-08-22T11:08:34.823Z,2.97
2022-08-22T11:11:18.137Z,3.20
2022-08-22T11:13:59.389Z,2.80
2022-08-22T11:16:45.607Z,2.97
2022-08-22T11:19:28.825Z,3.57
2022-08-22T11:22:10.254Z,3.17
2022-08-22T11:25:11.212Z,3.40
2022-08-22T11:27:49.218Z,3.20
2022-08-22T11:30:22.016Z,2.83
2022-08-22T11:33:39.063Z,3.08
2022-08-22T11:36:31.037Z,2.88
2022-08-22T11:39:18.733Z,3.00
2022-08-22T11:41:59.013Z,3.20
2022-08-22T11:44:36.785Z,3.38
2022-08-22T11:47:26.509Z,2.97
2022-08-22T11:50:01.471Z,2.95
2022-08-22T11:53:07.798Z,3.30
2022-08-22T11:55:42.500Z,3.10
2022-08-22T11:58:29.365Z,3.15
2022-08-22T12:01:04.419Z,2.75
2022-08-22T12:04:15.382Z,3.22
2022-08-22T12:07:13.858Z,3.33
2022-08-22T12:09:55.166Z,3.00
2022-08-22T12:12:36.229Z,3.40
2022-08-22T12:15:12.779Z,3.40
2022-08-22T12:18:26.662Z,2.92
2022-08-22T12:21:22.744Z,2.90
2022-08-22T12:24:20.831Z,2.80
2022-08-22T12:27:11.673Z,3.00
2022-08-22T12:29:49.050Z,3.00
2022-08-22T12:32:45.803Z,2.97
2022-08-22T12:35:33.495Z,3.20
2022-08-22T12:38:28.262Z,3.10
2022-08-22T12:41:28.289Z,3.10
2022-08-22T12:44:18.394Z,3.63
2022-08-22T12:47:06.839Z,3.65
2022-08-22T12:49:54.015Z,3.40
2022-08-22T12:52:39.186Z,3.30
2022-08-22T12:55:30.633Z,3.28
2022-08-22T12:58:09.845Z,3.33
2022-08-22T13:00:43.903Z,3.80
2022-08-22T13:03:25.823Z,3.45
2022-08-22T13:06:00.401Z,3.63
2022-08-22T13:08:32.485Z,3.83
2022-08-22T13:11:09.820Z,3.30
2022-08-22T13:13:56.185Z,3.55
2022-08-22T13:16:36.340Z,4.00
2022-08-22T13:19:13.730Z,4.05
2022-08-22T13:21:49.155Z,3.75
2022-08-22T13:24:38.772Z,4.20
2022-08-22T13:27:16.320Z,3.60
2022-08-22T13:29:54.565Z,3.60
2022-08-22T13:32:34.067Z,3.63
2022-08-22T13:35:07.336Z,3.30
2022-08-22T13:37:45.530Z,3.30
2022-08-22T13:40:26.806Z,3.30
2022-08-22T13:43:05.754Z,3.55
2022-08-22T13:45:37.655Z,2.90
2022-08-22T13:48:12.493Z,3.17
2022-08-22T13:50:59.685Z,3.00
2022-08-22T13:53:35.119Z,3.20
2022-08-22T13:56:15.889Z,3.33
2022-08-22T13:58:48.386Z,3.28
2022-08-22T14:01:32.215Z,3.42
2022-08-22T14:04:28.843Z,3.42
2022-08-22T14:07:24.181Z,3.20
2022-08-22T14:09:57.386Z,3.40
2022-08-22T14:12:33.325Z,3.60
2022-08-22T14:15:24.260Z,3.20
2022-08-22T14:18:03.236Z,3.42
2022-08-22T14:20:33.520Z,3.75
2022-08-22T14:23:08.034Z,3.65
2022-08-22T14:25:39.930Z,3.42
2022-08-22T14:28:21.528Z,3.58
2022-08-22T14:31:00.669Z,3.17
2022-08-22T14:33:35.268Z,3.00
2022-08-22T14:36:21.500Z,2.72
2022-08-22T14:38:57.136Z,2.90
2022-08-22T14:41:52.784Z,3.40
2022-08-22T14:44:26.484Z,3.53
2022-08-22T14:46:58.584Z,2.72
2022-08-22T14:49:31.804Z,2.72
2022-08-22T14:52:08.999Z,3.25
2022-08-22T14:54:40.244Z,3.50
2022-08-22T14:57:20.102Z,2.97
2022-08-22T14:59:52.751Z,3.20
2022-08-22T15:02:29.112Z,3.67
2022-08-22T15:05:05.423Z,4.00
2022-08-22T15:07:37.397Z,3.83
2022-08-22T15:10:11.881Z,3.75
2022-08-22T15:12:49.780Z,3.45
2022-08-22T15:15:32.514Z,4.55
2022-08-22T15:18:19.912Z,3.70
2022-08-22T15:20:52.142Z,3.40
2022-08-22T15:23:23.711Z,3.50
2022-08-22T15:26:03.714Z,3.47
2022-08-22T15:28:52.705Z,3.80
2022-08-22T15:31:23.275Z,3.22
2022-08-22T15:33:53.059Z,3.40
2022-08-22T15:36:24.439Z,3.33
2022-08-22T15:38:54.908Z,3.35
2022-08-22T15:41:39.549Z,3.42
2022-08-22T15:44:30.593Z,3.30
2022-08-22T15:47:15.168Z,3.20
2022-08-22T15:49:59.161Z,3.20
2022-08-22T15:52:30.862Z,3.28
2022-08-22T15:55:20.424Z,3.45
2022-08-22T15:57:59.887Z,2.95
2022-08-22T16:00:35.659Z,3.30
2022-08-22T16:03:08.611Z,3.35
2022-08-22T16:05:54.974Z,3.30
2022-08-22T16:08:32.768Z,4.18
2022-08-22T16:11:32.413Z,3.90
2022-08-22T16:14:24.286Z,3.58
2022-08-22T16:16:56.946Z,2.70
2022-08-22T16:19:27.311Z,2.65
2022-08-22T16:22:18.986Z,2.65
2022-08-22T16:25:10.291Z,2.67
2022-08-22T16:27:58.756Z,2.55
2022-08-22T16:30:47.345Z,2.55
2022-08-22T16:33:32.233Z,2.95
2022-08-22T16:36:39.106Z,2.60
2022-08-22T16:39:13.141Z,2.50
2022-08-22T16:41:44.714Z,2.63
2022-08-22T16:44:39.860Z,2.90
2022-08-22T16:47:15.373Z,3.05
2022-08-22T16:50:04.866Z,3.00
2022-08-22T16:52:51.987Z,2.95
2022-08-22T16:56:11.116Z,2.92
2022-08-22T16:59:13.880Z,2.90
2022-08-22T17:02:04.770Z,3.03
2022-08-22T17:04:41.458Z,2.92
2022-08-22T17:07:23.216Z,2.75
2022-08-22T17:10:12.046Z,2.95
2022-08-22T17:13:06.268Z,3.60
2022-08-22T17:15:41.057Z,3.28
2022-08-22T17:18:24.415Z,3.63
2022-08-22T17:21:05.657Z,3.35
2022-08-22T17:23:41.846Z,3.28
2022-08-22T17:26:27.798Z,3.30
2022-08-22T17:29:06.052Z,3.60
2022-08-22T17:31:44.737Z,3.90
2022-08-22T17:34:26.272Z,4.35
2022-08-22T17:37:07.653Z,4.13
2022-08-22T17:39:55.963Z,4.80
2022-08-22T17:42:39.603Z,4.93
2022-08-22T17:45:17.134Z,4.78
2022-08-22T17:47:50.988Z,5.18
2022-08-22T17:50:26.890Z,4.75
2022-08-22T17:53:02.437Z,5.25
2022-08-22T17:55:35.649Z,5.32
2022-08-22T17:58:13.582Z,5.50
2022-08-22T18:01:13.551Z,5.60
2022-08-22T18:03:50.515Z,5.40
2022-08-22T18:06:24.073Z,5.32
2022-08-22T18:09:15.167Z,5.00
2022-08-22T18:11:52.374Z,5.85
2022-08-22T18:14:29.893Z,5.03
2022-08-22T18:17:00.963Z,5.60
2022-08-22T18:19:43.568Z,5.22
2022-08-22T18:22:20.488Z,5.20
2022-08-22T18:24:55.717Z,4.80
2022-08-22T18:27:35.433Z,4.35
2022-08-22T18:30:17.512Z,5.05
2022-08-22T18:32:57.546Z,5.20
2022-08-22T18:35:30.229Z,5.45
2022-08-22T18:38:19.682Z,6.10
2022-08-22T18:40:58.365Z,6.20
2022-08-22T18:43:38.383Z,5.55
2022-08-22T18:46:34.140Z,5.93
2022-08-22T18:49:34.763Z,6.15
2022-08-22T18:52:16.920Z,5.72
2022-08-22T18:55:02.533Z,5.57
2022-08-22T19:00:49.468Z,5.82
2022-08-22T19:03:42.490Z,5.03
2022-08-22T19:06:43.952Z,6.05
2022-08-22T19:09:49.252Z,5.60
2022-08-22T19:12:40.531Z,6.32
2022-08-22T19:15:30.006Z,5.57
2022-08-22T19:18:16.164Z,5.43
2022-08-22T19:21:02.564Z,5.72
2022-08-22T19:23:47.661Z,5.53
2022-08-22T19:26:38.744Z,5.53
2022-08-22T19:29:46.274Z,5.70
2022-08-22T19:33:02.012Z,5.65
2022-08-22T19:35:46.045Z,5.55
2022-08-22T19:38:53.232Z,6.00
2022-08-22T19:41:57.060Z,5.47
2022-08-22T19:44:35.865Z,5.75
2022-08-22T19:47:24.120Z,4.53
2022-08-22T19:50:00.418Z,3.90
2022-08-22T19:52:46.762Z,3.40
2022-08-22T19:55:24.104Z,3.38
2022-08-22T19:58:04.771Z,3.20
2022-08-22T20:00:53.975Z,2.90
2022-08-22T20:03:35.078Z,2.97
2022-08-22T20:06:33.757Z,3.03
2022-08-22T20:09:14.202Z,3.45
2022-08-22T20:11:48.878Z,3.22
2022-08-22T20:14:30.327Z,3.65
2022-08-22T20:17:07.809Z,3.65
2022-08-22T20:22:46.637Z,3.45
2022-08-22T20:25:42.842Z,3.40
2022-08-22T20:28:34.381Z,2.88
2022-08-22T20:31:10.544Z,2.50
2022-08-22T20:33:42.536Z,2.72
2022-08-22T20:36:27.952Z,2.72
2022-08-22T20:39:04.214Z,2.83
2022-08-22T20:41:38.716Z,1.90
2022-08-22T20:44:13.526Z,2.20
2022-08-22T20:46:54.991Z,2.63
2022-08-22T20:49:28.895Z,2.30
2022-08-22T20:52:00.550Z,2.00
2022-08-22T20:54:32.299Z,2.20
2022-08-22T20:57:03.453Z,2.30
2022-08-22T20:59:37.149Z,2.13
2022-08-22T21:02:19.128Z,2.33
2022-08-22T21:04:54.150Z,2.20
2022-08-22T21:07:24.948Z,1.95
2022-08-22T21:10:21.711Z,2.00
2022-08-22T21:13:07.474Z,2.10
2022-08-22T21:15:39.348Z,1.80
2022-08-22T21:18:09.632Z,2.20
2022-08-22T21:20:40.387Z,2.05
2022-08-22T21:23:12.908Z,2.50
2022-08-22T21:25:52.046Z,2.58
2022-08-22T21:28:29.312Z,2.07
2022-08-22T21:30:58.893Z,2.30
2022-08-22T21:33:29.284Z,2.20
2022-08-22T21:36:00.592Z,2.40
2022-08-22T21:38:29.771Z,2.08
2022-08-22T21:41:05.416Z,2.50
2022-08-22T21:43:38.070Z,2.28
2022-08-22T21:46:08.444Z,2.40
2022-08-22T21:48:43.740Z,2.67
2022-08-22T21:51:24.192Z,2.10
2022-08-22T21:54:16.036Z,2.88
2022-08-22T21:56:41.981Z,2.10
2022-08-22T21:59:50.798Z,2.58
2022-08-22T22:02:31.245Z,2.72
2022-08-22T22:05:08.245Z,2.10
2022-08-22T22:07:39.277Z,2.30
2022-08-22T22:10:11.447Z,2.00
2022-08-22T22:12:41.604Z,2.30
2022-08-22T22:15:12.790Z,2.50
2022-08-22T22:17:41.799Z,1.90
2022-08-22T22:20:13.830Z,1.98
2022-08-22T22:22:46.589Z,1.92
2022-08-22T22:25:40.536Z,2.47
2022-08-22T22:28:08.992Z,2.25
2022-08-22T22:30:38.030Z,2.20
2022-08-22T22:33:07.211Z,2.30
2022-08-22T22:35:39.809Z,1.97
2022-08-22T22:38:09.616Z,2.15
2022-08-22T22:40:38.790Z,2.13
2022-08-22T22:43:07.646Z,2.00
2022-08-22T22:45:36.491Z,2.08
2022-08-22T22:48:06.844Z,1.67
2022-08-22T22:50:40.757Z,2.13
2022-08-22T22:53:09.992Z,2.53
2022-08-22T22:55:41.704Z,2.10
2022-08-22T22:58:10.943Z,2.20
2022-08-22T23:00:40.619Z,2.00
2022-08-22T23:03:10.033Z,1.98
2022-08-22T23:05:40.558Z,2.63
2022-08-22T23:08:09.410Z,2.50
2022-08-22T23:10:38.330Z,2.40
2022-08-22T23:13:07.731Z,2.35
2022-08-22T23:15:36.285Z,2.33
2022-08-22T23:18:05.466Z,2.53
2022-08-22T23:20:34.286Z,2.15
2022-08-22T23:23:04.491Z,2.40
2022-08-22T23:25:33.492Z,2.35
2022-08-22T23:28:02.693Z,2.50
2022-08-22T23:30:31.974Z,2.35
2022-08-22T23:33:00.826Z,2.40
2022-08-22T23:35:29.766Z,2.10
2022-08-22T23:37:58.688Z,2.20
2022-08-22T23:40:29.392Z,2.42
2022-08-22T23:42:59.271Z,2.40
2022-08-22T23:45:28.516Z,2.35
2022-08-22T23:47:57.454Z,1.90
2022-08-22T23:50:26.360Z,2.20
2022-08-22T23:52:55.423Z,2.13
2022-08-22T23:55:24.157Z,2.30
2022-08-22T23:57:54.613Z,2.30
